createdAt,value
2022-08-08T00:02:03.542Z,4.95
2022-08-08T00:04:20.590Z,4.78
2022-08-08T00:07:12.801Z,4.86
2022-08-08T00:10:03.555Z,4.66
2022-08-08T00:12:37.925Z,4.58
2022-08-08T00:15:17.519Z,4.87
2022-08-08T00:18:04.730Z,4.34
2022-08-08T00:20:38.501Z,4.52
2022-08-08T00:23:20.852Z,4.54
2022-08-08T00:25:56.446Z,4.46
2022-08-08T00:28:36.848Z,4.50
2022-08-08T00:32:14.899Z,4.66
2022-08-08T00:34:18.165Z,4.56
2022-08-08T00:37:03.479Z,4.60
2022-08-08T00:41:07.773Z,4.62
2022-08-08T00:42:50.448Z,4.78
2022-08-08T00:45:40.857Z,4.82
2022-08-08T00:48:30.187Z,4.91
2022-08-08T00:51:09.721Z,4.62
2022-08-08T00:54:17.652Z,4.96
2022-08-08T00:57:35.848Z,4.97
2022-08-08T01:00:11.430Z,5.11
2022-08-08T01:03:57.612Z,4.72
2022-08-08T01:06:27.651Z,5.16
2022-08-08T01:09:36.138Z,5.26
2022-08-08T01:12:20.025Z,4.95
2022-08-08T01:15:17.212Z,5.26
2022-08-08T01:18:25.028Z,5.37
2022-08-08T01:21:14.110Z,5.19
2022-08-08T01:24:05.870Z,5.33
2022-08-08T01:27:02.896Z,5.04
2022-08-08T01:29:59.207Z,4.99
2022-08-08T01:32:52.185Z,4.87
2022-08-08T01:41:43.971Z,5.14
2022-08-08T01:44:50.625Z,5.18
2022-08-08T01:59:09.067Z,5.31
2022-08-08T02:02:02.879Z,5.26
2022-08-08T02:04:52.413Z,5.16
2022-08-08T02:07:24.520Z,5.23
2022-08-08T02:10:30.154Z,5.02
2022-08-08T02:13:52.647Z,5.33
2022-08-08T02:16:34.434Z,5.31
2022-08-08T02:19:57.607Z,5.56
2022-08-08T02:22:10.241Z,5.67
2022-08-08T02:25:12.017Z,5.86
2022-08-08T02:27:57.149Z,5.43
2022-08-08T02:30:58.124Z,5.65
2022-08-08T02:34:08.124Z,5.86
2022-08-08T02:36:57.190Z,5.89
2022-08-08T02:39:59.653Z,5.79
2022-08-08T02:42:45.033Z,5.88
2022-08-08T02:45:28.220Z,5.80
2022-08-08T02:48:26.079Z,6.06
2022-08-08T02:50:56.936Z,6.33
2022-08-08T02:53:50.996Z,6.30
2022-08-08T02:56:39.368Z,6.30
2022-08-08T02:59:57.687Z,6.25
2022-08-08T03:02:50.541Z,6.12
2022-08-08T03:06:07.198Z,5.88
2022-08-08T03:08:56.498Z,6.05
2022-08-08T03:12:05.754Z,6.31
2022-08-08T03:20:43.450Z,5.95
2022-08-08T03:23:17.598Z,6.13
2022-08-08T03:25:45.854Z,6.08
2022-08-08T03:28:23.410Z,6.19
2022-08-08T03:31:07.959Z,6.38
2022-08-08T03:33:56.354Z,6.35
2022-08-08T03:36:30.183Z,6.44
2022-08-08T03:39:14.454Z,6.24
2022-08-08T03:42:27.725Z,6.50
2022-08-08T03:44:32.746Z,5.92
2022-08-08T03:46:59.931Z,6.03
2022-08-08T03:49:57.432Z,6.33
2022-08-08T03:52:26.997Z,5.70
2022-08-08T03:55:10.087Z,6.00
2022-08-08T03:58:34.477Z,5.56
2022-08-08T04:00:27.859Z,5.98
2022-08-08T04:03:04.419Z,5.79
2022-08-08T04:05:39.870Z,5.21
2022-08-08T04:08:33.564Z,5.48
2022-08-08T04:11:11.068Z,5.54
2022-08-08T04:14:34.595Z,5.30
2022-08-08T04:16:50.033Z,5.25
2022-08-08T04:19:23.085Z,5.51
2022-08-08T04:21:50.958Z,5.39
2022-08-08T04:24:28.599Z,5.59
2022-08-08T04:26:57.463Z,5.85
2022-08-08T04:29:25.113Z,6.25
2022-08-08T04:31:58.701Z,6.27
2022-08-08T04:34:28.015Z,5.82
2022-08-08T04:36:59.345Z,5.59
2022-08-08T04:40:04.620Z,5.77
2022-08-08T04:42:15.845Z,5.80
2022-08-08T04:44:43.555Z,5.76
2022-08-08T04:47:14.954Z,5.90
2022-08-08T04:50:00.678Z,5.78
2022-08-08T04:52:34.306Z,5.92
2022-08-08T04:55:02.628Z,5.83
2022-08-08T04:57:31.591Z,6.08
2022-08-08T05:00:00.986Z,5.83
2022-08-08T05:02:31.331Z,5.84
2022-08-08T05:04:59.979Z,5.50
2022-08-08T05:07:38.038Z,5.90
2022-08-08T05:13:01.843Z,5.98
2022-08-08T05:15:31.502Z,5.78
2022-08-08T05:18:15.431Z,6.16
2022-08-08T05:20:50.539Z,6.04
2022-08-08T05:23:20.498Z,6.16
2022-08-08T05:25:47.398Z,6.16
2022-08-08T05:28:14.836Z,5.93
2022-08-08T05:30:41.672Z,5.89
2022-08-08T05:33:14.248Z,5.71
2022-08-08T05:35:44.425Z,6.24
2022-08-08T05:38:31.754Z,6.22
2022-08-08T05:41:04.494Z,5.97
2022-08-08T05:43:39.594Z,5.90
2022-08-08T05:46:12.140Z,5.94
2022-08-08T05:48:39.226Z,5.77
2022-08-08T05:51:13.307Z,5.94
2022-08-08T05:54:24.378Z,5.49
2022-08-08T05:56:38.627Z,5.96
2022-08-08T05:59:15.851Z,6.30
2022-08-08T06:02:05.883Z,6.51
2022-08-08T06:04:34.359Z,6.49
2022-08-08T06:07:01.847Z,5.95
2022-08-08T06:09:58.482Z,5.82
2022-08-08T06:12:29.307Z,6.01
2022-08-08T06:15:03.810Z,6.17
2022-08-08T06:17:50.865Z,6.13
2022-08-08T06:20:27.808Z,6.15
2022-08-08T06:22:56.417Z,6.42
2022-08-08T06:26:34.663Z,5.72
2022-08-08T06:28:21.091Z,6.05
2022-08-08T06:31:00.406Z,6.09
2022-08-08T06:34:25.937Z,6.25
2022-08-08T06:36:53.274Z,6.19
2022-08-08T06:39:21.758Z,6.15
2022-08-08T06:41:58.322Z,5.84
2022-08-08T06:44:26.083Z,5.84
2022-08-08T06:46:56.791Z,6.18
2022-08-08T06:49:55.012Z,5.86
2022-08-08T06:52:10.912Z,5.48
2022-08-08T06:54:48.999Z,6.00
2022-08-08T06:57:15.821Z,5.88
2022-08-08T07:00:10.072Z,5.73
2022-08-08T07:02:32.837Z,5.49
2022-08-08T07:05:04.712Z,5.83
2022-08-08T07:07:37.041Z,5.70
2022-08-08T07:10:08.544Z,5.22
2022-08-08T07:12:47.996Z,5.19
2022-08-08T07:15:31.713Z,5.33
2022-08-08T07:18:36.040Z,5.33
2022-08-08T07:21:02.123Z,5.10
2022-08-08T07:24:03.629Z,5.11
2022-08-08T07:26:35.473Z,5.34
2022-08-08T07:29:05.341Z,5.00
2022-08-08T07:31:35.318Z,4.78
2022-08-08T07:34:08.997Z,4.88
2022-08-08T07:36:48.319Z,4.95
2022-08-08T07:39:29.397Z,5.53
2022-08-08T07:42:05.048Z,5.04
2022-08-08T07:44:40.579Z,4.79
2022-08-08T07:47:08.663Z,4.91
2022-08-08T07:49:36.696Z,5.21
2022-08-08T07:52:13.076Z,5.33
2022-08-08T07:54:52.521Z,5.13
2022-08-08T07:57:45.020Z,5.48
2022-08-08T08:00:17.244Z,5.17
2022-08-08T08:03:10.950Z,5.17
2022-08-08T08:05:51.005Z,5.51
2022-08-08T08:08:18.884Z,5.51
2022-08-08T08:10:51.665Z,5.33
2022-08-08T08:13:43.012Z,5.56
2022-08-08T08:16:25.745Z,5.27
2022-08-08T08:19:02.077Z,5.21
2022-08-08T08:21:44.498Z,5.31
2022-08-08T08:24:18.639Z,5.15
2022-08-08T08:26:46.849Z,4.86
2022-08-08T08:29:19.754Z,4.96
2022-08-08T08:31:53.878Z,4.83
2022-08-08T08:34:24.541Z,4.94
2022-08-08T08:36:59.509Z,4.70
2022-08-08T08:39:59.976Z,4.50
2022-08-08T08:42:14.859Z,4.71
2022-08-08T08:44:55.590Z,5.11
2022-08-08T08:47:23.928Z,5.21
2022-08-08T08:49:51.933Z,5.10
2022-08-08T08:52:20.543Z,4.70
2022-08-08T08:54:49.329Z,4.74
2022-08-08T08:57:23.080Z,5.03
2022-08-08T08:59:59.912Z,4.98
2022-08-08T09:02:35.571Z,4.61
2022-08-08T09:05:05.867Z,4.86
2022-08-08T09:07:39.166Z,4.76
2022-08-08T09:10:22.666Z,4.79
2022-08-08T09:12:56.475Z,4.56
2022-08-08T09:15:40.720Z,5.03
2022-08-08T09:18:09.150Z,5.30
2022-08-08T09:21:57.827Z,5.00
2022-08-08T09:23:28.873Z,5.27
2022-08-08T09:26:19.005Z,5.87
2022-08-08T09:28:49.751Z,5.88
2022-08-08T09:31:42.322Z,5.46
2022-08-08T09:34:30.748Z,4.74
2022-08-08T09:37:46.362Z,4.91
2022-08-08T09:40:02.875Z,4.49
2022-08-08T09:42:44.220Z,4.18
2022-08-08T09:45:55.511Z,4.44
2022-08-08T09:48:21.846Z,4.28
2022-08-08T09:50:56.007Z,4.57
2022-08-08T09:54:01.189Z,5.14
2022-08-08T09:56:25.354Z,5.16
2022-08-08T09:59:01.503Z,4.71
2022-08-08T10:01:59.754Z,4.45
2022-08-08T10:04:41.281Z,4.94
2022-08-08T10:07:15.486Z,6.22
2022-08-08T10:10:00.222Z,6.15
2022-08-08T10:12:53.920Z,6.36
2022-08-08T10:15:26.802Z,5.10
2022-08-08T10:18:09.153Z,4.82
2022-08-08T10:20:57.508Z,4.30
2022-08-08T10:23:44.256Z,4.46
2022-08-08T10:26:52.239Z,4.65
2022-08-08T10:29:20.822Z,4.42
2022-08-08T10:31:47.931Z,4.16
2022-08-08T10:34:18.923Z,4.56
2022-08-08T10:36:48.284Z,4.52
2022-08-08T10:39:23.418Z,4.35
2022-08-08T10:42:16.241Z,4.76
2022-08-08T10:44:43.792Z,5.99
2022-08-08T10:47:15.440Z,6.02
2022-08-08T10:50:01.989Z,6.64
2022-08-08T10:52:37.826Z,6.42
2022-08-08T10:55:09.339Z,6.08
2022-08-08T10:57:49.790Z,4.95
2022-08-08T11:00:25.686Z,4.52
2022-08-08T11:02:54.617Z,4.63
2022-08-08T11:05:22.994Z,4.72
2022-08-08T11:08:38.654Z,4.54
2022-08-08T11:10:39.679Z,4.37
2022-08-08T11:13:34.751Z,4.49
2022-08-08T11:16:00.796Z,4.75
2022-08-08T11:18:35.935Z,4.52
2022-08-08T11:21:10.084Z,4.69
2022-08-08T11:23:41.801Z,4.22
2022-08-08T11:26:19.297Z,4.78
2022-08-08T11:28:46.977Z,4.20
2022-08-08T11:31:17.451Z,4.27
2022-08-08T11:34:01.488Z,3.82
2022-08-08T11:36:31.600Z,4.08
2022-08-08T11:38:58.616Z,3.91
2022-08-08T11:41:27.661Z,3.94
2022-08-08T11:43:58.142Z,4.21
2022-08-08T11:46:28.141Z,3.86
2022-08-08T11:48:59.357Z,3.64
2022-08-08T11:51:30.697Z,3.81
2022-08-08T11:54:27.430Z,3.87
2022-08-08T11:56:56.407Z,4.00
2022-08-08T11:59:57.752Z,3.83
2022-08-08T12:02:40.186Z,3.72
2022-08-08T12:05:13.340Z,4.30
2022-08-08T12:07:55.869Z,3.56
2022-08-08T12:10:25.996Z,3.69
2022-08-08T12:13:07.421Z,3.77
2022-08-08T12:15:42.067Z,3.89
2022-08-08T12:18:25.012Z,3.95
2022-08-08T12:20:58.915Z,3.75
2022-08-08T12:23:43.346Z,3.46
2022-08-08T12:26:27.793Z,3.68
2022-08-08T12:29:22.337Z,3.69
2022-08-08T12:32:19.900Z,3.66
2022-08-08T12:35:16.779Z,3.49
2022-08-08T12:38:01.071Z,3.62
2022-08-08T12:40:55.990Z,3.64
2022-08-08T12:43:46.434Z,3.54
2022-08-08T12:46:25.150Z,3.56
2022-08-08T12:51:49.781Z,3.47
2022-08-08T12:54:35.703Z,3.50
2022-08-08T12:57:21.129Z,3.35
2022-08-08T13:00:06.344Z,3.73
2022-08-08T13:02:41.987Z,3.58
2022-08-08T13:05:26.415Z,3.83
2022-08-08T13:08:19.816Z,3.83
2022-08-08T13:10:56.801Z,3.38
2022-08-08T13:13:35.080Z,3.32
2022-08-08T13:16:25.678Z,3.28
2022-08-08T13:19:00.627Z,3.32
2022-08-08T13:21:48.621Z,2.77
2022-08-08T13:24:39.378Z,3.11
2022-08-08T13:27:12.306Z,3.43
2022-08-08T13:29:59.255Z,3.10
2022-08-08T13:32:30.422Z,2.93
2022-08-08T13:34:59.189Z,2.96
2022-08-08T13:38:05.012Z,3.07
2022-08-08T13:40:18.114Z,2.80
2022-08-08T13:42:55.717Z,2.92
2022-08-08T13:45:24.399Z,2.97
2022-08-08T13:47:59.387Z,2.89
2022-08-08T13:50:37.262Z,2.78
2022-08-08T13:53:25.235Z,2.71
2022-08-08T13:56:03.053Z,2.79
2022-08-08T13:58:29.921Z,2.78
2022-08-08T14:00:57.009Z,2.63
2022-08-08T14:03:47.247Z,2.81
2022-08-08T14:06:36.160Z,2.46
2022-08-08T14:09:24.837Z,2.50
2022-08-08T14:11:50.333Z,2.50
2022-08-08T14:14:21.003Z,2.59
2022-08-08T14:16:53.707Z,2.51
2022-08-08T14:19:57.256Z,2.50
2022-08-08T14:22:21.326Z,2.70
2022-08-08T14:24:56.333Z,2.72
2022-08-08T14:27:33.175Z,2.76
2022-08-08T14:30:01.946Z,2.69
2022-08-08T14:32:30.554Z,2.72
2022-08-08T14:35:04.485Z,2.49
2022-08-08T14:37:43.087Z,2.82
2022-08-08T14:40:26.921Z,2.68
2022-08-08T14:43:01.619Z,2.71
2022-08-08T14:46:02.454Z,2.51
2022-08-08T14:48:40.193Z,2.75
2022-08-08T14:51:17.824Z,2.77
2022-08-08T14:53:56.124Z,2.72
2022-08-08T14:56:25.152Z,2.83
2022-08-08T14:58:51.645Z,2.77
2022-08-08T15:01:23.773Z,2.60
2022-08-08T15:04:08.566Z,2.55
2022-08-08T15:06:35.614Z,2.48
2022-08-08T15:09:04.317Z,2.44
2022-08-08T15:11:39.409Z,2.66
2022-08-08T15:14:14.293Z,2.81
2022-08-08T15:16:42.432Z,2.69
2022-08-08T15:19:09.156Z,2.72
2022-08-08T15:21:42.610Z,2.89
2022-08-08T15:24:13.732Z,2.47
2022-08-08T15:26:40.646Z,2.73
2022-08-08T15:29:07.558Z,2.60
2022-08-08T15:32:02.680Z,2.58
2022-08-08T15:34:29.697Z,2.72
2022-08-08T15:37:02.201Z,2.92
2022-08-08T15:39:29.744Z,2.62
2022-08-08T15:41:57.722Z,2.61
2022-08-08T15:44:24.054Z,2.87
2022-08-08T15:46:51.282Z,2.71
2022-08-08T15:49:20.788Z,2.67
2022-08-08T15:51:50.173Z,2.84
2022-08-08T15:54:18.931Z,2.45
2022-08-08T15:57:07.508Z,2.65
2022-08-08T16:00:06.225Z,2.83
2022-08-08T16:02:21.641Z,2.55
2022-08-08T16:04:48.188Z,2.50
2022-08-08T16:07:24.772Z,2.72
2022-08-08T16:13:15.358Z,2.72
2022-08-08T16:13:27.449Z,2.61
2022-08-08T16:15:57.467Z,2.58
2022-08-08T16:18:26.009Z,2.66
2022-08-08T16:20:52.346Z,2.68
2022-08-08T16:23:18.719Z,2.73
2022-08-08T16:25:53.779Z,2.52
2022-08-08T16:28:35.343Z,2.27
2022-08-08T16:31:03.224Z,2.55
2022-08-08T16:33:36.009Z,2.51
2022-08-08T16:36:05.479Z,2.79
2022-08-08T16:38:36.138Z,2.53
2022-08-08T16:41:07.355Z,3.54
2022-08-08T16:43:48.756Z,3.17
2022-08-08T16:46:43.196Z,2.71
2022-08-08T16:49:04.081Z,2.76
2022-08-08T16:55:02.593Z,2.91
2022-08-08T16:55:03.231Z,3.06
2022-08-08T16:57:03.797Z,4.22
2022-08-08T16:59:52.089Z,3.31
2022-08-08T17:02:44.298Z,2.60
2022-08-08T17:05:12.859Z,2.37
2022-08-08T17:07:40.437Z,2.47
2022-08-08T17:10:11.523Z,2.67
2022-08-08T17:12:38.308Z,2.30
2022-08-08T17:15:17.768Z,2.32
2022-08-08T17:18:02.563Z,3.05
2022-08-08T17:20:39.563Z,4.46
2022-08-08T17:23:17.890Z,2.90
2022-08-08T17:25:54.507Z,2.65
2022-08-08T17:28:33.999Z,2.54
2022-08-08T17:31:45.142Z,2.84
2022-08-08T17:34:48.604Z,2.43
2022-08-08T17:37:00.789Z,3.14
2022-08-08T17:40:02.923Z,2.47
2022-08-08T17:42:12.817Z,2.37
2022-08-08T17:44:39.833Z,2.66
2022-08-08T17:47:10.751Z,2.76
2022-08-08T17:49:42.502Z,2.72
2022-08-08T17:52:10.185Z,2.72
2022-08-08T17:54:37.239Z,2.50
2022-08-08T17:57:03.853Z,2.69
2022-08-08T17:59:45.352Z,2.26
2022-08-08T18:02:16.374Z,3.16
2022-08-08T18:04:45.403Z,2.64
2022-08-08T18:08:03.462Z,2.62
2022-08-08T18:10:04.299Z,3.04
2022-08-08T18:12:30.897Z,2.87
2022-08-08T18:14:57.358Z,2.51
2022-08-08T18:17:28.608Z,2.48
2022-08-08T18:20:44.051Z,2.34
2022-08-08T18:22:58.301Z,2.66
2022-08-08T18:25:25.582Z,2.64
2022-08-08T18:27:55.031Z,2.45
2022-08-08T18:30:21.495Z,2.55
2022-08-08T18:32:48.450Z,2.46
2022-08-08T18:35:16.670Z,2.60
2022-08-08T18:37:48.550Z,2.91
2022-08-08T18:40:15.413Z,3.01
2022-08-08T18:42:50.043Z,2.99
2022-08-08T18:45:45.067Z,2.88
2022-08-08T18:48:07.784Z,2.96
2022-08-08T18:50:34.849Z,3.00
2022-08-08T18:53:06.243Z,3.03
2022-08-08T18:55:33.676Z,2.87
2022-08-08T18:58:00.136Z,2.90
2022-08-08T19:00:26.474Z,2.71
2022-08-08T19:02:56.050Z,2.73
2022-08-08T19:05:32.343Z,2.60
2022-08-08T19:08:25.714Z,2.79
2022-08-08T19:11:01.335Z,2.72
2022-08-08T19:13:52.683Z,2.73
2022-08-08T19:16:19.498Z,2.77
2022-08-08T19:18:54.514Z,2.96
2022-08-08T19:21:30.158Z,2.75
2022-08-08T19:23:57.541Z,2.87
2022-08-08T19:26:30.584Z,2.79
2022-08-08T19:28:58.435Z,2.75
2022-08-08T19:31:31.451Z,3.08
2022-08-08T19:34:29.368Z,3.13
2022-08-08T19:36:48.204Z,2.98
2022-08-08T19:39:14.771Z,2.87
2022-08-08T19:41:41.741Z,2.84
2022-08-08T19:44:12.597Z,2.98
2022-08-08T19:46:39.918Z,2.94
2022-08-08T19:49:07.339Z,2.86
2022-08-08T19:51:43.578Z,3.09
2022-08-08T19:54:12.043Z,2.86
2022-08-08T19:56:40.157Z,3.13
2022-08-08T19:59:09.571Z,2.75
2022-08-08T20:02:01.232Z,2.83
2022-08-08T20:04:23.741Z,3.08
2022-08-08T20:06:50.810Z,2.87
2022-08-08T20:09:17.481Z,2.90
2022-08-08T20:11:49.450Z,3.17
2022-08-08T20:14:35.770Z,3.19
2022-08-08T20:17:04.283Z,2.94
2022-08-08T20:19:34.671Z,3.06
2022-08-08T20:22:13.421Z,2.85
2022-08-08T20:24:56.138Z,2.95
2022-08-08T20:27:26.509Z,2.80
2022-08-08T20:30:10.822Z,2.97
2022-08-08T20:32:57.149Z,2.82
2022-08-08T20:35:23.799Z,2.91
2022-08-08T20:38:10.177Z,2.95
2022-08-08T20:40:39.260Z,2.93
2022-08-08T20:43:13.265Z,2.97
2022-08-08T20:45:57.897Z,2.70
2022-08-08T20:48:30.198Z,3.08
2022-08-08T20:50:56.579Z,3.13
2022-08-08T20:53:57.647Z,3.15
2022-08-08T20:56:09.300Z,3.06
2022-08-08T20:58:38.204Z,2.97
2022-08-08T21:01:07.331Z,2.98
2022-08-08T21:03:56.165Z,2.96
2022-08-08T21:06:51.894Z,2.90
2022-08-08T21:09:16.038Z,2.96
2022-08-08T21:11:51.798Z,3.10
2022-08-08T21:14:33.308Z,2.83
2022-08-08T21:17:02.159Z,3.07
2022-08-08T21:19:44.225Z,2.88
2022-08-08T21:28:16.166Z,2.98
2022-08-08T21:30:49.898Z,3.03
2022-08-08T21:33:18.919Z,3.52
2022-08-08T21:36:16.576Z,3.05
2022-08-08T21:38:31.909Z,3.03
2022-08-08T21:40:58.304Z,3.11
2022-08-08T21:43:34.361Z,3.10
2022-08-08T21:48:04.478Z,2.92
2022-08-08T21:48:54.667Z,3.08
2022-08-08T21:54:34.186Z,3.20
2022-08-08T21:54:34.363Z,3.11
2022-08-08T21:57:00.536Z,3.32
2022-08-08T22:00:01.825Z,3.06
2022-08-08T22:02:16.053Z,3.00
2022-08-08T22:04:45.783Z,3.23
2022-08-08T22:07:12.117Z,3.04
2022-08-08T22:09:43.599Z,3.23
2022-08-08T22:12:16.886Z,3.17
2022-08-08T22:14:44.879Z,3.27
2022-08-08T22:17:16.265Z,3.30
2022-08-08T22:20:11.223Z,3.58
2022-08-08T22:22:34.483Z,3.46
2022-08-08T22:25:04.600Z,3.24
2022-08-08T22:28:03.620Z,3.30
2022-08-08T22:30:31.922Z,3.24
2022-08-08T22:33:00.489Z,3.28
2022-08-08T22:35:26.875Z,3.27
2022-08-08T22:38:14.116Z,3.46
2022-08-08T22:40:43.943Z,3.42
2022-08-08T22:43:10.841Z,3.23
2022-08-08T22:45:38.473Z,3.38
2022-08-08T22:48:05.884Z,3.34
2022-08-08T22:50:33.535Z,3.33
2022-08-08T22:54:33.247Z,3.43
2022-08-08T22:55:59.041Z,3.39
2022-08-08T22:58:30.982Z,3.54
2022-08-08T23:00:57.697Z,3.29
2022-08-08T23:03:24.132Z,3.47
2022-08-08T23:06:01.842Z,3.39
2022-08-08T23:08:28.375Z,3.25
2022-08-08T23:11:06.268Z,3.33
2022-08-08T23:13:41.891Z,3.18
2022-08-08T23:16:39.155Z,3.56
2022-08-08T23:19:04.195Z,3.32
2022-08-08T23:21:30.505Z,3.04
2022-08-08T23:23:57.427Z,3.28
2022-08-08T23:26:23.746Z,3.51
2022-08-08T23:28:51.421Z,3.46
2022-08-08T23:31:17.747Z,3.37
2022-08-08T23:34:16.391Z,3.31
2022-08-08T23:36:30.361Z,3.37
2022-08-08T23:38:56.685Z,3.64
2022-08-08T23:41:25.087Z,3.61
2022-08-08T23:43:56.551Z,3.39
2022-08-08T23:49:08.547Z,3.33
2022-08-08T23:49:14.630Z,3.44
2022-08-08T23:52:04.922Z,3.37
2022-08-08T23:54:42.361Z,3.30
2022-08-08T23:57:27.597Z,3.19
